sensor_id;sensor_type;location;lat;lon;timestamp;temperature;humidity
19220;DHT22;9744;49.364;7.484;2022-08-20T00:01:02;21.10;99.90
19220;DHT22;9744;49.364;7.484;2022-08-20T00:03:31;21.00;99.90
19220;DHT22;9744;49.364;7.484;2022-08-20T00:06:01;21.00;99.90
19220;DHT22;9744;49.364;7.484;2022-08-20T00:08:29;20.90;99.90
19220;DHT22;9744;49.364;7.484;2022-08-20T00:10:58;20.90;99.90
19220;DHT22;9744;49.364;7.484;2022-08-20T00:13:29;20.80;99.90
19220;DHT22;9744;49.364;7.484;2022-08-20T00:15:58;20.80;99.90
19220;DHT22;9744;49.364;7.484;2022-08-20T00:18:26;20.80;99.90
19220;DHT22;9744;49.364;7.484;2022-08-20T00:20:55;20.70;99.90
19220;DHT22;9744;49.364;7.484;2022-08-20T00:23:23;20.60;99.90
19220;DHT22;9744;49.364;7.484;2022-08-20T00:25:52;20.60;99.90
19220;DHT22;9744;49.364;7.484;2022-08-20T00:28:19;20.70;99.90
19220;DHT22;9744;49.364;7.484;2022-08-20T00:30:47;20.70;99.90
19220;DHT22;9744;49.364;7.484;2022-08-20T00:33:17;20.60;99.90
19220;DHT22;9744;49.364;7.484;2022-08-20T00:35:49;20.40;99.90
19220;DHT22;9744;49.364;7.484;2022-08-20T00:38:18;20.40;99.90
19220;DHT22;9744;49.364;7.484;2022-08-20T00:40:48;20.30;99.90
19220;DHT22;9744;49.364;7.484;2022-08-20T00:43:31;20.20;99.90
19220;DHT22;9744;49.364;7.484;2022-08-20T00:46:09;20.20;99.90
19220;DHT22;9744;49.364;7.484;2022-08-20T00:48:40;20.20;99.90
19220;DHT22;9744;49.364;7.484;2022-08-20T00:51:12;20.00;99.90
19220;DHT22;9744;49.364;7.484;2022-08-20T00:53:43;20.10;99.90
19220;DHT22;9744;49.364;7.484;2022-08-20T00:56:10;20.10;99.90
19220;DHT22;9744;49.364;7.484;2022-08-20T00:58:39;20.10;99.90
19220;DHT22;9744;49.364;7.484;2022-08-20T01:01:10;20.20;99.90
19220;DHT22;9744;49.364;7.484;2022-08-20T01:03:38;20.10;99.90
19220;DHT22;9744;49.364;7.484;2022-08-20T01:06:08;20.10;99.90
19220;DHT22;9744;49.364;7.484;2022-08-20T01:08:38;20.00;99.90
19220;DHT22;9744;49.364;7.484;2022-08-20T01:11:06;20.00;99.90
19220;DHT22;9744;49.364;7.484;2022-08-20T01:13:38;20.00;99.90
19220;DHT22;9744;49.364;7.484;2022-08-20T01:16:15;20.00;99.90
19220;DHT22;9744;49.364;7.484;2022-08-20T01:18:45;19.90;99.90
19220;DHT22;9744;49.364;7.484;2022-08-20T01:21:16;19.90;99.90
19220;DHT22;9744;49.364;7.484;2022-08-20T01:23:53;20.00;99.90
19220;DHT22;9744;49.364;7.484;2022-08-20T01:26:25;20.00;99.90
19220;DHT22;9744;49.364;7.484;2022-08-20T01:28:56;19.90;99.90
19220;DHT22;9744;49.364;7.484;2022-08-20T01:31:27;19.80;99.90
19220;DHT22;9744;49.364;7.484;2022-08-20T01:33:56;19.80;99.90
19220;DHT22;9744;49.364;7.484;2022-08-20T01:36:26;19.80;99.90
19220;DHT22;9744;49.364;7.484;2022-08-20T01:38:55;19.80;99.90
19220;DHT22;9744;49.364;7.484;2022-08-20T01:41:40;19.80;99.90
19220;DHT22;9744;49.364;7.484;2022-08-20T01:44:09;19.70;99.90
19220;DHT22;9744;49.364;7.484;2022-08-20T01:46:39;19.70;99.90
19220;DHT22;9744;49.364;7.484;2022-08-20T01:49:11;19.60;99.90
19220;DHT22;9744;49.364;7.484;2022-08-20T01:51:40;19.60;99.90
19220;DHT22;9744;49.364;7.484;2022-08-20T01:54:08;19.50;99.90
19220;DHT22;9744;49.364;7.484;2022-08-20T01:56:51;19.40;99.90
19220;DHT22;9744;49.364;7.484;2022-08-20T01:59:18;19.40;99.90
19220;DHT22;9744;49.364;7.484;2022-08-20T02:01:46;19.40;99.90
19220;DHT22;9744;49.364;7.484;2022-08-20T02:04:14;19.40;99.90
19220;DHT22;9744;49.364;7.484;2022-08-20T02:06:45;19.50;99.90
19220;DHT22;9744;49.364;7.484;2022-08-20T02:09:13;19.50;99.90
19220;DHT22;9744;49.364;7.484;2022-08-20T02:11:42;19.60;99.90
19220;DHT22;9744;49.364;7.484;2022-08-20T02:14:11;19.50;99.90
19220;DHT22;9744;49.364;7.484;2022-08-20T02:16:40;19.50;99.90
19220;DHT22;9744;49.364;7.484;2022-08-20T02:19:17;19.40;99.90
19220;DHT22;9744;49.364;7.484;2022-08-20T02:21:50;19.20;99.90
19220;DHT22;9744;49.364;7.484;2022-08-20T02:24:18;19.10;99.90
19220;DHT22;9744;49.364;7.484;2022-08-20T02:26:50;19.10;99.90
19220;DHT22;9744;49.364;7.484;2022-08-20T02:29:18;19.10;99.90
19220;DHT22;9744;49.364;7.484;2022-08-20T02:31:45;19.10;99.90
19220;DHT22;9744;49.364;7.484;2022-08-20T02:34:13;19.10;99.90
19220;DHT22;9744;49.364;7.484;2022-08-20T02:36:41;19.10;99.90
19220;DHT22;9744;49.364;7.484;2022-08-20T02:39:11;19.00;99.90
19220;DHT22;9744;49.364;7.484;2022-08-20T02:41:39;19.00;99.90
19220;DHT22;9744;49.364;7.484;2022-08-20T02:44:08;18.90;99.90
19220;DHT22;9744;49.364;7.484;2022-08-20T02:46:36;18.90;99.90
19220;DHT22;9744;49.364;7.484;2022-08-20T02:49:03;18.90;99.90
19220;DHT22;9744;49.364;7.484;2022-08-20T02:51:31;18.90;99.90
19220;DHT22;9744;49.364;7.484;2022-08-20T02:53:58;18.90;99.90
19220;DHT22;9744;49.364;7.484;2022-08-20T02:56:26;18.90;99.90
19220;DHT22;9744;49.364;7.484;2022-08-20T02:58:53;18.90;99.90
19220;DHT22;9744;49.364;7.484;2022-08-20T03:01:22;19.00;99.90
19220;DHT22;9744;49.364;7.484;2022-08-20T03:03:49;19.00;99.90
19220;DHT22;9744;49.364;7.484;2022-08-20T03:06:17;19.10;99.90
19220;DHT22;9744;49.364;7.484;2022-08-20T03:08:45;19.10;99.90
19220;DHT22;9744;49.364;7.484;2022-08-20T03:11:13;19.00;99.90
19220;DHT22;9744;49.364;7.484;2022-08-20T03:13:40;18.90;99.90
19220;DHT22;9744;49.364;7.484;2022-08-20T03:16:08;18.80;99.90
19220;DHT22;9744;49.364;7.484;2022-08-20T03:18:38;18.70;99.90
19220;DHT22;9744;49.364;7.484;2022-08-20T03:21:07;18.70;99.90
19220;DHT22;9744;49.364;7.484;2022-08-20T03:23:35;18.60;99.90
19220;DHT22;9744;49.364;7.484;2022-08-20T03:26:04;18.70;99.90
19220;DHT22;9744;49.364;7.484;2022-08-20T03:28:31;18.70;99.90
19220;DHT22;9744;49.364;7.484;2022-08-20T03:30:59;18.70;99.90
19220;DHT22;9744;49.364;7.484;2022-08-20T03:33:27;18.60;99.90
19220;DHT22;9744;49.364;7.484;2022-08-20T03:35:58;18.60;99.90
19220;DHT22;9744;49.364;7.484;2022-08-20T03:38:25;18.70;99.90
19220;DHT22;9744;49.364;7.484;2022-08-20T03:40:52;18.70;99.90
19220;DHT22;9744;49.364;7.484;2022-08-20T03:43:19;18.60;99.90
19220;DHT22;9744;49.364;7.484;2022-08-20T03:45:47;18.60;99.90
19220;DHT22;9744;49.364;7.484;2022-08-20T03:48:16;18.60;99.90
19220;DHT22;9744;49.364;7.484;2022-08-20T03:50:45;18.50;99.90
19220;DHT22;9744;49.364;7.484;2022-08-20T03:53:14;18.60;99.90
19220;DHT22;9744;49.364;7.484;2022-08-20T03:55:42;18.60;99.90
19220;DHT22;9744;49.364;7.484;2022-08-20T03:58:12;18.60;99.90
19220;DHT22;9744;49.364;7.484;2022-08-20T04:00:48;18.50;99.90
19220;DHT22;9744;49.364;7.484;2022-08-20T04:03:17;18.40;99.90
19220;DHT22;9744;49.364;7.484;2022-08-20T04:05:45;18.40;99.90
19220;DHT22;9744;49.364;7.484;2022-08-20T04:08:16;18.30;99.90
19220;DHT22;9744;49.364;7.484;2022-08-20T04:10:45;18.40;99.90
19220;DHT22;9744;49.364;7.484;2022-08-20T04:13:13;18.40;99.90
19220;DHT22;9744;49.364;7.484;2022-08-20T04:15:41;18.50;99.90
19220;DHT22;9744;49.364;7.484;2022-08-20T04:18:11;18.40;99.90
19220;DHT22;9744;49.364;7.484;2022-08-20T04:20:40;18.40;99.90
19220;DHT22;9744;49.364;7.484;2022-08-20T04:23:08;18.40;99.90
19220;DHT22;9744;49.364;7.484;2022-08-20T04:25:37;18.40;99.90
19220;DHT22;9744;49.364;7.484;2022-08-20T04:28:11;18.40;99.90
19220;DHT22;9744;49.364;7.484;2022-08-20T04:30:39;18.30;99.90
19220;DHT22;9744;49.364;7.484;2022-08-20T04:33:07;18.30;99.90
19220;DHT22;9744;49.364;7.484;2022-08-20T04:35:34;18.20;99.90
19220;DHT22;9744;49.364;7.484;2022-08-20T04:38:05;18.30;99.90
19220;DHT22;9744;49.364;7.484;2022-08-20T04:40:34;18.40;99.90
19220;DHT22;9744;49.364;7.484;2022-08-20T04:43:25;18.40;99.90
19220;DHT22;9744;49.364;7.484;2022-08-20T04:45:53;18.50;99.90
19220;DHT22;9744;49.364;7.484;2022-08-20T04:48:24;18.40;99.90
19220;DHT22;9744;49.364;7.484;2022-08-20T04:50:52;18.40;99.90
19220;DHT22;9744;49.364;7.484;2022-08-20T04:53:22;18.40;99.90
19220;DHT22;9744;49.364;7.484;2022-08-20T04:55:51;18.40;99.90
19220;DHT22;9744;49.364;7.484;2022-08-20T04:58:21;18.30;99.90
19220;DHT22;9744;49.364;7.484;2022-08-20T05:00:52;18.30;99.90
19220;DHT22;9744;49.364;7.484;2022-08-20T05:03:20;18.20;99.90
19220;DHT22;9744;49.364;7.484;2022-08-20T05:05:49;18.10;99.90
19220;DHT22;9744;49.364;7.484;2022-08-20T05:08:18;18.10;99.90
19220;DHT22;9744;49.364;7.484;2022-08-20T05:10:45;18.10;99.90
19220;DHT22;9744;49.364;7.484;2022-08-20T05:13:13;18.20;99.90
19220;DHT22;9744;49.364;7.484;2022-08-20T05:15:40;18.30;99.90
19220;DHT22;9744;49.364;7.484;2022-08-20T05:18:12;18.30;99.90
19220;DHT22;9744;49.364;7.484;2022-08-20T05:20:40;18.20;99.90
19220;DHT22;9744;49.364;7.484;2022-08-20T05:23:09;18.10;99.90
19220;DHT22;9744;49.364;7.484;2022-08-20T05:25:41;18.00;99.90
19220;DHT22;9744;49.364;7.484;2022-08-20T05:28:11;17.80;99.90
19220;DHT22;9744;49.364;7.484;2022-08-20T05:30:39;17.70;99.90
19220;DHT22;9744;49.364;7.484;2022-08-20T05:33:09;17.70;99.90
19220;DHT22;9744;49.364;7.484;2022-08-20T05:35:38;17.70;99.90
19220;DHT22;9744;49.364;7.484;2022-08-20T05:38:06;17.70;99.90
19220;DHT22;9744;49.364;7.484;2022-08-20T05:40:35;17.70;99.90
19220;DHT22;9744;49.364;7.484;2022-08-20T05:43:02;17.60;99.90
19220;DHT22;9744;49.364;7.484;2022-08-20T05:45:31;17.60;99.90
19220;DHT22;9744;49.364;7.484;2022-08-20T05:47:58;17.70;99.90
19220;DHT22;9744;49.364;7.484;2022-08-20T05:50:29;17.70;99.90
19220;DHT22;9744;49.364;7.484;2022-08-20T05:52:58;17.70;99.90
19220;DHT22;9744;49.364;7.484;2022-08-20T05:55:26;17.80;99.90
19220;DHT22;9744;49.364;7.484;2022-08-20T05:57:56;17.90;99.90
19220;DHT22;9744;49.364;7.484;2022-08-20T06:00:24;17.80;99.90
19220;DHT22;9744;49.364;7.484;2022-08-20T06:02:51;17.90;99.90
19220;DHT22;9744;49.364;7.484;2022-08-20T06:05:36;18.10;99.90
19220;DHT22;9744;49.364;7.484;2022-08-20T06:08:06;18.00;99.90
19220;DHT22;9744;49.364;7.484;2022-08-20T06:10:34;17.90;99.90
19220;DHT22;9744;49.364;7.484;2022-08-20T06:13:02;18.00;99.90
19220;DHT22;9744;49.364;7.484;2022-08-20T06:15:30;17.90;99.90
19220;DHT22;9744;49.364;7.484;2022-08-20T06:17:57;18.00;99.90
19220;DHT22;9744;49.364;7.484;2022-08-20T06:20:25;18.10;99.90
19220;DHT22;9744;49.364;7.484;2022-08-20T06:22:54;18.00;99.90
19220;DHT22;9744;49.364;7.484;2022-08-20T06:25:23;18.00;99.90
19220;DHT22;9744;49.364;7.484;2022-08-20T06:27:50;18.10;99.90
19220;DHT22;9744;49.364;7.484;2022-08-20T06:30:17;18.10;99.90
19220;DHT22;9744;49.364;7.484;2022-08-20T06:32:45;18.10;99.90
19220;DHT22;9744;49.364;7.484;2022-08-20T06:35:12;18.30;99.90
19220;DHT22;9744;49.364;7.484;2022-08-20T06:37:40;18.10;99.90
19220;DHT22;9744;49.364;7.484;2022-08-20T06:40:10;18.10;99.90
19220;DHT22;9744;49.364;7.484;2022-08-20T06:42:40;18.00;99.90
19220;DHT22;9744;49.364;7.484;2022-08-20T06:45:09;18.10;99.90
19220;DHT22;9744;49.364;7.484;2022-08-20T06:47:39;18.20;99.90
19220;DHT22;9744;49.364;7.484;2022-08-20T06:50:08;18.10;99.90
19220;DHT22;9744;49.364;7.484;2022-08-20T06:52:35;18.20;99.90
19220;DHT22;9744;49.364;7.484;2022-08-20T06:55:05;18.30;99.90
19220;DHT22;9744;49.364;7.484;2022-08-20T06:57:33;18.40;99.90
19220;DHT22;9744;49.364;7.484;2022-08-20T07:00:03;18.60;99.90
19220;DHT22;9744;49.364;7.484;2022-08-20T07:02:31;18.90;99.90
19220;DHT22;9744;49.364;7.484;2022-08-20T07:04:58;19.30;99.90
19220;DHT22;9744;49.364;7.484;2022-08-20T07:07:26;19.20;99.90
19220;DHT22;9744;49.364;7.484;2022-08-20T07:09:58;19.30;99.90
19220;DHT22;9744;49.364;7.484;2022-08-20T07:12:25;19.60;99.90
19220;DHT22;9744;49.364;7.484;2022-08-20T07:14:53;19.90;99.90
19220;DHT22;9744;49.364;7.484;2022-08-20T07:17:21;20.20;99.90
19220;DHT22;9744;49.364;7.484;2022-08-20T07:19:48;20.30;99.90
19220;DHT22;9744;49.364;7.484;2022-08-20T07:22:16;20.60;99.90
19220;DHT22;9744;49.364;7.484;2022-08-20T07:24:43;20.50;99.90
19220;DHT22;9744;49.364;7.484;2022-08-20T07:27:11;20.40;99.90
19220;DHT22;9744;49.364;7.484;2022-08-20T07:29:38;20.20;99.90
19220;DHT22;9744;49.364;7.484;2022-08-20T07:32:24;20.00;99.90
19220;DHT22;9744;49.364;7.484;2022-08-20T07:35:03;19.90;99.90
19220;DHT22;9744;49.364;7.484;2022-08-20T07:37:30;19.80;99.90
19220;DHT22;9744;49.364;7.484;2022-08-20T07:39:58;19.80;99.90
19220;DHT22;9744;49.364;7.484;2022-08-20T07:42:26;19.80;99.90
19220;DHT22;9744;49.364;7.484;2022-08-20T07:44:53;19.80;99.90
19220;DHT22;9744;49.364;7.484;2022-08-20T07:47:20;19.80;99.90
19220;DHT22;9744;49.364;7.484;2022-08-20T07:49:49;20.20;99.90
19220;DHT22;9744;49.364;7.484;2022-08-20T07:52:16;20.00;99.90
19220;DHT22;9744;49.364;7.484;2022-08-20T07:54:43;20.00;99.90
19220;DHT22;9744;49.364;7.484;2022-08-20T07:57:10;20.10;99.90
19220;DHT22;9744;49.364;7.484;2022-08-20T07:59:38;20.10;99.90
19220;DHT22;9744;49.364;7.484;2022-08-20T08:02:05;20.00;99.90
19220;DHT22;9744;49.364;7.484;2022-08-20T08:04:32;19.80;99.90
19220;DHT22;9744;49.364;7.484;2022-08-20T08:07:05;19.70;99.90
19220;DHT22;9744;49.364;7.484;2022-08-20T08:09:33;19.70;99.90
19220;DHT22;9744;49.364;7.484;2022-08-20T08:12:02;19.60;99.90
19220;DHT22;9744;49.364;7.484;2022-08-20T08:14:33;19.70;99.90
19220;DHT22;9744;49.364;7.484;2022-08-20T08:17:02;19.60;99.90
19220;DHT22;9744;49.364;7.484;2022-08-20T08:19:34;19.70;99.90
19220;DHT22;9744;49.364;7.484;2022-08-20T08:22:07;19.80;99.90
19220;DHT22;9744;49.364;7.484;2022-08-20T08:24:35;19.90;99.90
19220;DHT22;9744;49.364;7.484;2022-08-20T08:27:03;19.80;99.90
19220;DHT22;9744;49.364;7.484;2022-08-20T08:29:30;19.90;99.90
19220;DHT22;9744;49.364;7.484;2022-08-20T08:32:00;19.90;99.90
19220;DHT22;9744;49.364;7.484;2022-08-20T08:34:27;19.90;99.90
19220;DHT22;9744;49.364;7.484;2022-08-20T08:36:54;20.10;99.90
19220;DHT22;9744;49.364;7.484;2022-08-20T08:39:24;20.00;99.90
19220;DHT22;9744;49.364;7.484;2022-08-20T08:41:52;20.20;99.90
19220;DHT22;9744;49.364;7.484;2022-08-20T08:44:25;20.40;99.90
19220;DHT22;9744;49.364;7.484;2022-08-20T08:46:57;20.70;99.90
19220;DHT22;9744;49.364;7.484;2022-08-20T08:49:28;20.90;99.90
19220;DHT22;9744;49.364;7.484;2022-08-20T08:51:59;20.70;99.90
19220;DHT22;9744;49.364;7.484;2022-08-20T08:54:32;20.60;99.90
19220;DHT22;9744;49.364;7.484;2022-08-20T08:57:00;20.50;99.90
19220;DHT22;9744;49.364;7.484;2022-08-20T08:59:29;20.50;99.90
19220;DHT22;9744;49.364;7.484;2022-08-20T09:01:58;20.60;99.90
19220;DHT22;9744;49.364;7.484;2022-08-20T09:04:32;20.70;99.90
19220;DHT22;9744;49.364;7.484;2022-08-20T09:07:02;20.80;99.90
19220;DHT22;9744;49.364;7.484;2022-08-20T09:09:34;21.00;99.90
19220;DHT22;9744;49.364;7.484;2022-08-20T09:12:06;21.20;99.90
19220;DHT22;9744;49.364;7.484;2022-08-20T09:14:35;21.40;99.90
19220;DHT22;9744;49.364;7.484;2022-08-20T09:17:03;21.50;99.90
19220;DHT22;9744;49.364;7.484;2022-08-20T09:19:30;21.60;99.90
19220;DHT22;9744;49.364;7.484;2022-08-20T09:21:58;21.80;99.90
19220;DHT22;9744;49.364;7.484;2022-08-20T09:24:25;22.10;99.90
19220;DHT22;9744;49.364;7.484;2022-08-20T09:26:54;22.20;99.90
19220;DHT22;9744;49.364;7.484;2022-08-20T09:29:21;22.30;99.90
19220;DHT22;9744;49.364;7.484;2022-08-20T09:31:48;22.40;99.90
19220;DHT22;9744;49.364;7.484;2022-08-20T09:34:16;22.40;99.90
19220;DHT22;9744;49.364;7.484;2022-08-20T09:36:43;22.50;99.90
19220;DHT22;9744;49.364;7.484;2022-08-20T09:39:10;22.60;99.90
19220;DHT22;9744;49.364;7.484;2022-08-20T09:41:37;22.60;99.90
19220;DHT22;9744;49.364;7.484;2022-08-20T09:44:06;22.80;99.90
19220;DHT22;9744;49.364;7.484;2022-08-20T09:46:33;22.80;99.90
19220;DHT22;9744;49.364;7.484;2022-08-20T09:49:00;22.90;99.90
19220;DHT22;9744;49.364;7.484;2022-08-20T09:51:28;23.00;99.90
19220;DHT22;9744;49.364;7.484;2022-08-20T09:53:55;23.10;99.90
19220;DHT22;9744;49.364;7.484;2022-08-20T09:56:22;23.20;99.90
19220;DHT22;9744;49.364;7.484;2022-08-20T09:58:52;23.40;99.90
19220;DHT22;9744;49.364;7.484;2022-08-20T10:01:21;23.20;99.90
19220;DHT22;9744;49.364;7.484;2022-08-20T10:03:49;23.40;99.90
19220;DHT22;9744;49.364;7.484;2022-08-20T10:06:18;23.50;99.90
19220;DHT22;9744;49.364;7.484;2022-08-20T10:08:45;23.60;99.90
19220;DHT22;9744;49.364;7.484;2022-08-20T10:11:14;23.40;99.90
19220;DHT22;9744;49.364;7.484;2022-08-20T10:13:41;23.30;99.90
19220;DHT22;9744;49.364;7.484;2022-08-20T10:16:08;23.50;99.90
19220;DHT22;9744;49.364;7.484;2022-08-20T10:18:37;23.70;99.90
19220;DHT22;9744;49.364;7.484;2022-08-20T10:21:08;23.90;99.90
19220;DHT22;9744;49.364;7.484;2022-08-20T10:23:35;23.90;99.90
19220;DHT22;9744;49.364;7.484;2022-08-20T10:26:03;23.80;99.90
19220;DHT22;9744;49.364;7.484;2022-08-20T10:28:30;23.80;99.90
19220;DHT22;9744;49.364;7.484;2022-08-20T10:30:57;23.90;99.90
19220;DHT22;9744;49.364;7.484;2022-08-20T10:33:24;23.80;99.90
19220;DHT22;9744;49.364;7.484;2022-08-20T10:35:53;24.00;99.90
19220;DHT22;9744;49.364;7.484;2022-08-20T10:38:20;24.20;99.90
19220;DHT22;9744;49.364;7.484;2022-08-20T10:40:48;24.10;99.90
19220;DHT22;9744;49.364;7.484;2022-08-20T10:43:15;23.90;99.90
19220;DHT22;9744;49.364;7.484;2022-08-20T10:45:42;24.00;99.90
19220;DHT22;9744;49.364;7.484;2022-08-20T10:48:09;24.30;99.90
19220;DHT22;9744;49.364;7.484;2022-08-20T10:50:37;24.20;99.90
19220;DHT22;9744;49.364;7.484;2022-08-20T10:53:05;24.00;99.90
19220;DHT22;9744;49.364;7.484;2022-08-20T10:55:33;24.10;99.90
19220;DHT22;9744;49.364;7.484;2022-08-20T10:58:03;24.10;99.90
19220;DHT22;9744;49.364;7.484;2022-08-20T11:00:31;24.30;99.90
19220;DHT22;9744;49.364;7.484;2022-08-20T11:02:58;24.60;99.90
19220;DHT22;9744;49.364;7.484;2022-08-20T11:05:26;24.90;99.90
19220;DHT22;9744;49.364;7.484;2022-08-20T11:07:56;25.30;99.90
19220;DHT22;9744;49.364;7.484;2022-08-20T11:10:28;25.70;99.90
19220;DHT22;9744;49.364;7.484;2022-08-20T11:12:56;25.70;99.90
19220;DHT22;9744;49.364;7.484;2022-08-20T11:15:23;25.70;99.90
19220;DHT22;9744;49.364;7.484;2022-08-20T11:17:51;25.90;99.90
19220;DHT22;9744;49.364;7.484;2022-08-20T11:20:21;25.80;99.30
19220;DHT22;9744;49.364;7.484;2022-08-20T11:22:50;25.90;97.70
19220;DHT22;9744;49.364;7.484;2022-08-20T11:25:18;26.20;99.90
19220;DHT22;9744;49.364;7.484;2022-08-20T11:27:49;26.50;96.90
19220;DHT22;9744;49.364;7.484;2022-08-20T11:30:21;26.70;93.50
19220;DHT22;9744;49.364;7.484;2022-08-20T11:32:48;26.40;93.40
19220;DHT22;9744;49.364;7.484;2022-08-20T11:35:16;26.10;94.60
19220;DHT22;9744;49.364;7.484;2022-08-20T11:37:44;26.10;95.10
19220;DHT22;9744;49.364;7.484;2022-08-20T11:40:12;26.00;94.90
19220;DHT22;9744;49.364;7.484;2022-08-20T11:42:41;26.00;96.40
19220;DHT22;9744;49.364;7.484;2022-08-20T11:45:11;26.50;96.90
19220;DHT22;9744;49.364;7.484;2022-08-20T11:47:38;27.00;94.90
19220;DHT22;9744;49.364;7.484;2022-08-20T11:50:11;27.20;95.80
19220;DHT22;9744;49.364;7.484;2022-08-20T11:52:39;27.50;92.30
19220;DHT22;9744;49.364;7.484;2022-08-20T11:55:08;27.40;92.30
19220;DHT22;9744;49.364;7.484;2022-08-20T11:57:40;27.50;94.90
19220;DHT22;9744;49.364;7.484;2022-08-20T12:00:16;27.70;92.20
19220;DHT22;9744;49.364;7.484;2022-08-20T12:02:44;27.70;88.60
19220;DHT22;9744;49.364;7.484;2022-08-20T12:05:11;27.40;87.90
19220;DHT22;9744;49.364;7.484;2022-08-20T12:07:39;27.10;89.00
19220;DHT22;9744;49.364;7.484;2022-08-20T12:10:07;26.90;91.10
19220;DHT22;9744;49.364;7.484;2022-08-20T12:12:36;27.30;87.70
19220;DHT22;9744;49.364;7.484;2022-08-20T12:15:07;27.60;92.30
19220;DHT22;9744;49.364;7.484;2022-08-20T12:17:37;28.10;91.30
19220;DHT22;9744;49.364;7.484;2022-08-20T12:20:08;28.50;90.40
19220;DHT22;9744;49.364;7.484;2022-08-20T12:22:36;28.50;90.30
19220;DHT22;9744;49.364;7.484;2022-08-20T12:25:05;28.70;90.60
19220;DHT22;9744;49.364;7.484;2022-08-20T12:27:35;29.10;91.60
19220;DHT22;9744;49.364;7.484;2022-08-20T12:30:07;29.40;91.60
19220;DHT22;9744;49.364;7.484;2022-08-20T12:32:37;29.70;91.80
19220;DHT22;9744;49.364;7.484;2022-08-20T12:35:06;29.40;88.80
19220;DHT22;9744;49.364;7.484;2022-08-20T12:37:36;29.10;88.90
19220;DHT22;9744;49.364;7.484;2022-08-20T12:40:07;29.10;90.60
19220;DHT22;9744;49.364;7.484;2022-08-20T12:42:36;28.70;90.70
19220;DHT22;9744;49.364;7.484;2022-08-20T12:45:04;29.10;91.30
19220;DHT22;9744;49.364;7.484;2022-08-20T12:47:33;29.70;91.10
19220;DHT22;9744;49.364;7.484;2022-08-20T12:50:06;30.10;90.60
19220;DHT22;9744;49.364;7.484;2022-08-20T12:52:34;30.50;90.10
19220;DHT22;9744;49.364;7.484;2022-08-20T12:55:02;30.70;90.40
19220;DHT22;9744;49.364;7.484;2022-08-20T12:57:32;31.00;87.80
19220;DHT22;9744;49.364;7.484;2022-08-20T13:00:04;31.30;85.20
19220;DHT22;9744;49.364;7.484;2022-08-20T13:02:33;31.50;87.40
19220;DHT22;9744;49.364;7.484;2022-08-20T13:05:02;31.60;84.80
19220;DHT22;9744;49.364;7.484;2022-08-20T13:07:39;31.80;84.90
19220;DHT22;9744;49.364;7.484;2022-08-20T13:10:11;32.00;85.20
19220;DHT22;9744;49.364;7.484;2022-08-20T13:12:39;32.20;85.50
19220;DHT22;9744;49.364;7.484;2022-08-20T13:15:07;32.30;81.80
19220;DHT22;9744;49.364;7.484;2022-08-20T13:17:34;32.40;83.80
19220;DHT22;9744;49.364;7.484;2022-08-20T13:20:04;31.70;85.10
19220;DHT22;9744;49.364;7.484;2022-08-20T13:22:33;32.00;84.50
19220;DHT22;9744;49.364;7.484;2022-08-20T13:25:02;32.20;85.20
19220;DHT22;9744;49.364;7.484;2022-08-20T13:27:31;32.50;80.20
19220;DHT22;9744;49.364;7.484;2022-08-20T13:30:28;32.10;81.00
19220;DHT22;9744;49.364;7.484;2022-08-20T13:32:56;31.90;85.10
19220;DHT22;9744;49.364;7.484;2022-08-20T13:35:25;31.80;83.90
19220;DHT22;9744;49.364;7.484;2022-08-20T13:37:54;32.10;81.80
19220;DHT22;9744;49.364;7.484;2022-08-20T13:40:21;32.40;85.00
19220;DHT22;9744;49.364;7.484;2022-08-20T13:42:48;32.80;83.80
19220;DHT22;9744;49.364;7.484;2022-08-20T13:45:16;33.10;80.20
19220;DHT22;9744;49.364;7.484;2022-08-20T13:47:43;32.60;80.30
19220;DHT22;9744;49.364;7.484;2022-08-20T13:50:13;32.60;82.10
19220;DHT22;9744;49.364;7.484;2022-08-20T13:52:44;32.60;79.80
19220;DHT22;9744;49.364;7.484;2022-08-20T13:55:15;32.80;80.80
19220;DHT22;9744;49.364;7.484;2022-08-20T13:57:43;33.10;79.10
19220;DHT22;9744;49.364;7.484;2022-08-20T14:00:14;33.40;77.20
19220;DHT22;9744;49.364;7.484;2022-08-20T14:02:42;33.10;76.30
19220;DHT22;9744;49.364;7.484;2022-08-20T14:05:10;31.70;79.00
19220;DHT22;9744;49.364;7.484;2022-08-20T14:07:38;32.40;79.70
19220;DHT22;9744;49.364;7.484;2022-08-20T14:10:09;33.10;79.00
19220;DHT22;9744;49.364;7.484;2022-08-20T14:12:37;33.50;77.40
19220;DHT22;9744;49.364;7.484;2022-08-20T14:15:05;33.80;78.20
19220;DHT22;9744;49.364;7.484;2022-08-20T14:17:35;34.00;75.60
19220;DHT22;9744;49.364;7.484;2022-08-20T14:20:05;34.20;77.30
19220;DHT22;9744;49.364;7.484;2022-08-20T14:22:33;34.30;74.80
19220;DHT22;9744;49.364;7.484;2022-08-20T14:25:01;34.40;76.00
19220;DHT22;9744;49.364;7.484;2022-08-20T14:27:31;34.50;73.80
19220;DHT22;9744;49.364;7.484;2022-08-20T14:29:59;34.40;74.00
19220;DHT22;9744;49.364;7.484;2022-08-20T14:32:26;34.30;74.90
19220;DHT22;9744;49.364;7.484;2022-08-20T14:34:54;34.40;75.00
19220;DHT22;9744;49.364;7.484;2022-08-20T14:37:25;34.60;74.40
19220;DHT22;9744;49.364;7.484;2022-08-20T14:39:54;34.80;73.90
19220;DHT22;9744;49.364;7.484;2022-08-20T14:42:23;34.90;73.30
19220;DHT22;9744;49.364;7.484;2022-08-20T14:44:53;35.00;70.10
19220;DHT22;9744;49.364;7.484;2022-08-20T14:47:23;34.30;69.90
19220;DHT22;9744;49.364;7.484;2022-08-20T14:49:52;34.00;71.80
19220;DHT22;9744;49.364;7.484;2022-08-20T14:52:21;34.10;75.60
19220;DHT22;9744;49.364;7.484;2022-08-20T14:54:49;34.40;72.50
19220;DHT22;9744;49.364;7.484;2022-08-20T14:57:18;34.60;73.40
19220;DHT22;9744;49.364;7.484;2022-08-20T14:59:46;34.80;72.70
19220;DHT22;9744;49.364;7.484;2022-08-20T15:02:15;35.10;71.90
19220;DHT22;9744;49.364;7.484;2022-08-20T15:04:44;35.30;71.40
19220;DHT22;9744;49.364;7.484;2022-08-20T15:07:19;35.50;69.70
19220;DHT22;9744;49.364;7.484;2022-08-20T15:09:47;35.70;69.10
19220;DHT22;9744;49.364;7.484;2022-08-20T15:12:15;35.50;69.50
19220;DHT22;9744;49.364;7.484;2022-08-20T15:14:42;35.60;70.00
19220;DHT22;9744;49.364;7.484;2022-08-20T15:17:10;34.40;67.80
19220;DHT22;9744;49.364;7.484;2022-08-20T15:19:39;34.10;70.90
19220;DHT22;9744;49.364;7.484;2022-08-20T15:22:06;34.00;69.10
19220;DHT22;9744;49.364;7.484;2022-08-20T15:24:33;34.00;72.30
19220;DHT22;9744;49.364;7.484;2022-08-20T15:27:10;34.20;69.00
19220;DHT22;9744;49.364;7.484;2022-08-20T15:29:38;34.20;68.60
19220;DHT22;9744;49.364;7.484;2022-08-20T15:32:05;33.20;69.30
19220;DHT22;9744;49.364;7.484;2022-08-20T15:34:33;32.80;71.70
19220;DHT22;9744;49.364;7.484;2022-08-20T15:37:07;33.50;71.70
19220;DHT22;9744;49.364;7.484;2022-08-20T15:39:35;34.00;73.00
19220;DHT22;9744;49.364;7.484;2022-08-20T15:42:03;34.30;71.40
19220;DHT22;9744;49.364;7.484;2022-08-20T15:44:31;34.50;71.20
19220;DHT22;9744;49.364;7.484;2022-08-20T15:47:13;34.00;72.30
19220;DHT22;9744;49.364;7.484;2022-08-20T15:49:41;34.40;69.60
19220;DHT22;9744;49.364;7.484;2022-08-20T15:52:12;34.40;68.00
19220;DHT22;9744;49.364;7.484;2022-08-20T15:54:40;34.30;70.60
19220;DHT22;9744;49.364;7.484;2022-08-20T15:57:11;33.20;68.40